createdAt,value
2018-02-07T00:00:59.350Z,17.25
2018-02-07T00:01:58.755Z,17.25
2018-02-07T00:02:59.207Z,17.25
2018-02-07T00:03:58.636Z,17.25
2018-02-07T00:04:59.065Z,17.25
2018-02-07T00:05:58.506Z,17.25
2018-02-07T00:06:58.954Z,17.25
2018-02-07T00:07:59.384Z,17.25
2018-02-07T00:08:58.832Z,17.25
2018-02-07T00:09:59.300Z,17.25
2018-02-07T00:10:58.711Z,17.25
2018-02-07T00:11:59.173Z,17.25
2018-02-07T00:12:58.598Z,17.25
2018-02-07T00:13:59.122Z,17.25
2018-02-07T00:15:58.770Z,17.25
2018-02-07T00:16:59.222Z,17.25
2018-02-07T00:17:58.844Z,17.25
2018-02-07T00:18:59.305Z,17.25
2018-02-07T00:19:58.758Z,17.25
2018-02-07T00:20:59.199Z,17.25
2018-02-07T00:21:58.616Z,17.25
2018-02-07T00:22:59.076Z,17.25
2018-02-07T00:23:58.496Z,17.25
2018-02-07T00:24:58.922Z,17.25
2018-02-07T00:25:59.365Z,17.25
2018-02-07T00:26:58.792Z,17.25
2018-02-07T00:27:59.206Z,17.25
2018-02-07T00:28:58.639Z,17.25
2018-02-07T00:29:59.055Z,17.25
2018-02-07T00:30:58.486Z,17.25
2018-02-07T00:31:58.934Z,17.25
2018-02-07T00:32:59.351Z,17.25
2018-02-07T00:33:58.880Z,17.25
2018-02-07T00:34:59.290Z,17.25
2018-02-07T00:35:58.736Z,17.25
2018-02-07T00:36:59.205Z,17.25
2018-02-07T00:37:58.624Z,17.25
2018-02-07T00:38:59.072Z,17.25
2018-02-07T00:39:58.520Z,17
2018-02-07T00:40:58.960Z,17
2018-02-07T00:41:59.380Z,17
2018-02-07T00:42:58.814Z,17
2018-02-07T00:43:59.275Z,17
2018-02-07T00:44:58.699Z,17
2018-02-07T00:45:59.108Z,17
2018-02-07T00:46:58.595Z,17
2018-02-07T00:47:59.033Z,17
2018-02-07T00:48:58.532Z,17
2018-02-07T00:49:58.978Z,17
2018-02-07T00:50:59.402Z,17
2018-02-07T00:51:58.812Z,17
2018-02-07T00:52:59.225Z,17
2018-02-07T00:53:58.651Z,17
2018-02-07T00:54:59.104Z,17
2018-02-07T00:55:58.533Z,17
2018-02-07T00:56:58.996Z,17
2018-02-07T00:57:58.514Z,17
2018-02-07T00:58:59.038Z,17
2018-02-07T00:59:58.513Z,17
2018-02-07T01:00:59.089Z,17
2018-02-07T01:01:58.565Z,17
2018-02-07T01:02:59.002Z,17
2018-02-07T01:03:58.435Z,17
2018-02-07T01:04:58.926Z,17
2018-02-07T01:05:59.345Z,17
2018-02-07T01:06:58.765Z,17
2018-02-07T01:07:59.214Z,17
2018-02-07T01:08:58.739Z,17
2018-02-07T01:09:59.207Z,17
2018-02-07T01:10:58.655Z,17
2018-02-07T01:11:59.098Z,17
2018-02-07T01:12:58.552Z,17
2018-02-07T01:13:58.971Z,17
2018-02-07T01:14:59.435Z,17
2018-02-07T01:15:58.902Z,17
2018-02-07T01:16:59.333Z,17
2018-02-07T01:17:58.783Z,17
2018-02-07T01:18:58.449Z,17
2018-02-07T01:19:58.894Z,17
2018-02-07T01:20:59.362Z,17
2018-02-07T01:21:58.774Z,17
2018-02-07T01:22:59.229Z,17
2018-02-07T01:23:58.686Z,17
2018-02-07T01:24:59.173Z,17
2018-02-07T01:25:58.599Z,17
2018-02-07T01:26:59.078Z,17
2018-02-07T01:27:58.496Z,17
2018-02-07T01:28:58.929Z,17
2018-02-07T01:29:59.355Z,17
2018-02-07T01:30:58.839Z,17
2018-02-07T01:31:59.265Z,17
2018-02-07T01:32:58.729Z,17
2018-02-07T01:33:59.176Z,17
2018-02-07T01:34:58.622Z,17
2018-02-07T01:35:59.067Z,17
2018-02-07T01:36:58.514Z,17
2018-02-07T01:37:58.938Z,17
2018-02-07T01:38:59.376Z,17
2018-02-07T01:39:58.823Z,17
2018-02-07T01:40:59.256Z,17
2018-02-07T01:41:58.680Z,17
2018-02-07T01:42:59.122Z,17
2018-02-07T01:43:58.555Z,17
2018-02-07T01:44:59.007Z,17
2018-02-07T01:45:58.474Z,17
2018-02-07T01:46:58.897Z,16.75
2018-02-07T01:47:59.324Z,17
2018-02-07T01:48:58.728Z,17
2018-02-07T01:49:59.163Z,17
2018-02-07T01:50:58.614Z,16.75
2018-02-07T01:51:59.029Z,16.75
2018-02-07T01:52:58.458Z,16.75
2018-02-07T01:53:58.856Z,16.75
2018-02-07T01:54:59.283Z,16.75
2018-02-07T01:55:58.814Z,17
2018-02-07T01:56:59.274Z,17
2018-02-07T01:57:58.720Z,16.75
2018-02-07T01:58:59.143Z,17
2018-02-07T01:59:58.565Z,16.75
2018-02-07T02:00:59.145Z,16.75
2018-02-07T02:01:58.579Z,16.75
2018-02-07T02:02:59.054Z,16.75
2018-02-07T02:03:58.480Z,16.75
2018-02-07T02:04:58.906Z,16.75
2018-02-07T02:05:59.351Z,16.75
2018-02-07T02:06:58.784Z,16.75
2018-02-07T02:07:59.205Z,16.75
2018-02-07T02:08:58.628Z,16.75
2018-02-07T02:09:59.041Z,16.75
2018-02-07T02:10:58.503Z,16.75
2018-02-07T02:11:58.930Z,16.75
2018-02-07T02:12:59.361Z,16.75
2018-02-07T02:13:58.788Z,16.75
2018-02-07T02:14:59.201Z,16.75
2018-02-07T02:15:58.642Z,16.75
2018-02-07T02:16:59.077Z,16.75
2018-02-07T02:17:58.514Z,16.75
2018-02-07T02:18:58.974Z,16.75
2018-02-07T02:19:58.605Z,16.75
2018-02-07T02:20:59.051Z,16.75
2018-02-07T02:21:58.501Z,16.75
2018-02-07T02:22:58.910Z,16.75
2018-02-07T02:23:59.342Z,16.75
2018-02-07T02:24:58.800Z,16.75
2018-02-07T02:25:59.222Z,16.75
2018-02-07T02:26:58.697Z,16.75
2018-02-07T02:27:59.146Z,16.75
2018-02-07T02:28:58.559Z,16.75
2018-02-07T02:29:59.029Z,16.75
2018-02-07T02:30:58.473Z,16.75
2018-02-07T02:31:58.933Z,16.75
2018-02-07T02:32:59.378Z,16.75
2018-02-07T02:33:58.875Z,16.75
2018-02-07T02:34:59.326Z,16.75
2018-02-07T02:35:58.766Z,16.75
2018-02-07T02:36:59.208Z,16.75
2018-02-07T02:37:58.644Z,16.75
2018-02-07T02:38:59.120Z,16.75
2018-02-07T02:39:58.569Z,16.75
2018-02-07T02:40:59.020Z,16.75
2018-02-07T02:41:58.465Z,16.75
2018-02-07T02:42:58.890Z,16.75
2018-02-07T02:43:59.321Z,16.75
2018-02-07T02:44:58.747Z,16.75
2018-02-07T02:45:59.189Z,16.75
2018-02-07T02:46:58.629Z,16.75
2018-02-07T02:47:59.076Z,16.75
2018-02-07T02:48:58.502Z,16.75
2018-02-07T02:49:58.892Z,16.75
2018-02-07T02:50:59.314Z,16.75
2018-02-07T02:51:58.758Z,16.75
2018-02-07T02:52:59.211Z,16.75
2018-02-07T02:53:58.618Z,16.75
2018-02-07T02:54:59.015Z,16.75
2018-02-07T02:55:58.447Z,16.75
2018-02-07T02:56:58.874Z,16.75
2018-02-07T02:57:59.507Z,16.75
2018-02-07T02:58:59.057Z,16.75
2018-02-07T02:59:58.476Z,16.75
2018-02-07T03:00:58.910Z,16.75
2018-02-07T03:01:59.321Z,16.75
2018-02-07T03:02:58.775Z,16.75
2018-02-07T03:03:59.213Z,16.75
2018-02-07T03:04:58.637Z,16.75
2018-02-07T03:05:59.126Z,16.75
2018-02-07T03:06:58.559Z,16.5
2018-02-07T03:07:59.148Z,16.75
2018-02-07T03:08:58.570Z,16.75
2018-02-07T03:09:59.004Z,16.75
2018-02-07T03:10:58.443Z,16.75
2018-02-07T03:11:58.881Z,16.75
2018-02-07T03:12:59.352Z,16.75
2018-02-07T03:13:58.807Z,16.75
2018-02-07T03:14:59.217Z,16.75
2018-02-07T03:15:58.645Z,16.75
2018-02-07T03:16:59.085Z,16.75
2018-02-07T03:17:58.525Z,16.5
2018-02-07T03:18:58.948Z,16.5
2018-02-07T03:19:58.368Z,16.5
2018-02-07T03:20:59.032Z,16.5
2018-02-07T03:21:58.539Z,16.5
2018-02-07T03:22:58.977Z,16.5
2018-02-07T03:23:58.400Z,16.5
2018-02-07T03:24:58.817Z,16.5
2018-02-07T03:25:59.235Z,16.5
2018-02-07T03:26:58.636Z,16.5
2018-02-07T03:27:59.141Z,16.5
2018-02-07T03:28:58.573Z,16.5
2018-02-07T03:29:58.993Z,16.5
2018-02-07T03:30:58.413Z,16.5
2018-02-07T03:31:58.849Z,16.5
2018-02-07T03:32:59.296Z,16.5
2018-02-07T03:33:58.727Z,16.5
2018-02-07T03:34:59.144Z,16.5
2018-02-07T03:35:58.573Z,16.5
2018-02-07T03:36:59.016Z,16.5
2018-02-07T03:37:58.473Z,16.5
2018-02-07T03:38:58.901Z,16.5
2018-02-07T03:39:59.326Z,16.5
2018-02-07T03:40:58.830Z,16.5
2018-02-07T03:41:59.253Z,16.5
2018-02-07T03:42:58.711Z,16.5
2018-02-07T03:43:59.141Z,16.5
2018-02-07T03:44:58.544Z,16.5
2018-02-07T03:45:58.957Z,16.5
2018-02-07T03:46:58.377Z,16.5
2018-02-07T03:47:58.798Z,16.5
2018-02-07T03:48:59.292Z,16.5
2018-02-07T03:49:58.733Z,16.5
2018-02-07T03:50:59.160Z,16.5
2018-02-07T03:51:58.581Z,16.5
2018-02-07T03:52:59.066Z,16.5
2018-02-07T03:53:58.555Z,16.5
2018-02-07T03:54:58.973Z,16.5
2018-02-07T03:55:58.404Z,16.5
2018-02-07T03:56:58.838Z,16.5
2018-02-07T03:57:59.250Z,16.5
2018-02-07T03:58:58.689Z,16.5
2018-02-07T03:59:59.103Z,16.5
2018-02-07T04:01:58.807Z,16.5
2018-02-07T04:02:59.246Z,16.5
2018-02-07T04:03:58.688Z,16.5
2018-02-07T04:04:59.100Z,16.5
2018-02-07T04:05:58.546Z,16.5
2018-02-07T04:06:58.971Z,16.5
2018-02-07T04:07:58.443Z,16.5
2018-02-07T04:08:58.909Z,16.5
2018-02-07T04:09:59.352Z,16.5
2018-02-07T04:10:58.768Z,16.5
2018-02-07T04:11:59.210Z,16.5
2018-02-07T04:12:58.637Z,16.5
2018-02-07T04:13:59.094Z,16.5
2018-02-07T04:14:58.567Z,16.5
2018-02-07T04:15:58.993Z,16.5
2018-02-07T04:16:58.411Z,16.5
2018-02-07T04:17:58.861Z,16.5
2018-02-07T04:18:59.284Z,16.5
2018-02-07T04:19:58.890Z,16.5
2018-02-07T04:20:59.323Z,16.5
2018-02-07T04:21:58.979Z,16.5
2018-02-07T04:22:58.434Z,16.5
2018-02-07T04:23:58.875Z,16.5
2018-02-07T04:24:59.351Z,16.5
2018-02-07T04:25:58.771Z,16.5
2018-02-07T04:26:59.185Z,16.5
2018-02-07T04:27:58.631Z,16.5
2018-02-07T04:28:59.051Z,16.5
2018-02-07T04:29:58.492Z,16.5
2018-02-07T04:30:58.952Z,16.25
2018-02-07T04:31:58.383Z,16.5
2018-02-07T04:32:58.810Z,16.25
2018-02-07T04:33:59.228Z,16.25
2018-02-07T04:34:58.652Z,16.25
2018-02-07T04:35:59.089Z,16.5
2018-02-07T04:36:58.524Z,16.5
2018-02-07T04:37:58.952Z,16.5
2018-02-07T04:38:58.380Z,16.25
2018-02-07T04:39:58.912Z,16.5
2018-02-07T04:40:58.339Z,16.25
2018-02-07T04:41:58.770Z,16.25
2018-02-07T04:42:59.194Z,16.25
2018-02-07T04:43:58.634Z,16.25
2018-02-07T04:44:59.034Z,16.25
2018-02-07T04:45:58.455Z,16.25
2018-02-07T04:46:58.892Z,16.5
2018-02-07T04:47:58.312Z,16.25
2018-02-07T04:48:58.802Z,16.25
2018-02-07T04:49:59.249Z,16.25
2018-02-07T04:50:58.720Z,16.5
2018-02-07T04:51:59.150Z,16.5
2018-02-07T04:52:58.616Z,16.5
2018-02-07T04:53:59.059Z,16.5
2018-02-07T04:54:58.464Z,16.5
2018-02-07T04:55:58.930Z,16.5
2018-02-07T04:56:58.412Z,16.5
2018-02-07T04:57:58.833Z,16.5
2018-02-07T04:58:59.279Z,16.5
2018-02-07T04:59:58.795Z,16.5
2018-02-07T05:00:59.329Z,16.5
2018-02-07T05:01:58.757Z,16.5
2018-02-07T05:02:59.237Z,16.5
2018-02-07T05:03:58.764Z,16.5
2018-02-07T05:04:59.228Z,16.5
2018-02-07T05:05:58.660Z,16.5
2018-02-07T05:06:59.100Z,16.5
2018-02-07T05:07:58.545Z,16.5
2018-02-07T05:08:58.990Z,16.5
2018-02-07T05:09:58.470Z,16.5
2018-02-07T05:10:59.114Z,16.5
2018-02-07T05:11:58.545Z,16.5
2018-02-07T05:12:58.978Z,16.5
2018-02-07T05:13:58.423Z,16.5
2018-02-07T05:14:58.852Z,16.5
2018-02-07T05:15:59.313Z,16.5
2018-02-07T05:16:58.740Z,16.5
2018-02-07T05:17:59.210Z,16.5
2018-02-07T05:18:58.747Z,16.5
2018-02-07T05:19:59.173Z,16.5
2018-02-07T05:20:58.679Z,16.5
2018-02-07T05:21:59.126Z,16.5
2018-02-07T05:23:59.064Z,16.75
2018-02-07T05:24:58.489Z,16.75
2018-02-07T05:25:58.923Z,16.75
2018-02-07T05:26:58.468Z,16.75
2018-02-07T05:28:59.215Z,16.75
2018-02-07T05:29:58.650Z,16.75
2018-02-07T05:30:59.091Z,16.75
2018-02-07T05:31:58.522Z,16.75
2018-02-07T05:33:58.396Z,16.75
2018-02-07T05:34:58.836Z,16.75
2018-02-07T05:35:59.256Z,16.75
2018-02-07T05:36:58.703Z,16.75
2018-02-07T05:37:59.255Z,16.75
2018-02-07T05:38:58.689Z,16.75
2018-02-07T05:39:59.118Z,16.75
2018-02-07T05:40:58.556Z,16.75
2018-02-07T05:41:59.004Z,16.75
2018-02-07T05:42:58.461Z,16.75
2018-02-07T05:43:58.887Z,16.75
2018-02-07T05:44:58.339Z,16.75
2018-02-07T05:45:58.761Z,16.75
2018-02-07T05:46:59.219Z,16.75
2018-02-07T05:47:58.623Z,16.75
2018-02-07T05:48:59.090Z,16.75
2018-02-07T05:49:58.545Z,16.75
2018-02-07T05:50:59.010Z,16.75
2018-02-07T05:51:58.450Z,16.75
2018-02-07T05:52:58.908Z,16.75
2018-02-07T05:53:58.408Z,16.75
2018-02-07T05:54:58.823Z,16.75
2018-02-07T05:55:59.260Z,16.75
2018-02-07T05:56:58.663Z,16.75
2018-02-07T05:57:59.088Z,16.75
2018-02-07T05:58:58.545Z,17
2018-02-07T05:59:58.982Z,17
2018-02-07T06:00:58.426Z,17
2018-02-07T06:01:58.864Z,17
2018-02-07T06:02:59.281Z,17
2018-02-07T06:03:58.733Z,17
2018-02-07T06:04:59.160Z,17
2018-02-07T06:05:58.584Z,17
2018-02-07T06:06:59.013Z,17
2018-02-07T06:07:58.447Z,17
2018-02-07T06:08:58.863Z,17
2018-02-07T06:09:59.324Z,17
2018-02-07T06:10:58.766Z,17
2018-02-07T06:11:59.182Z,17
2018-02-07T06:12:58.629Z,17
2018-02-07T06:13:59.081Z,17
2018-02-07T06:14:58.559Z,17
2018-02-07T06:15:58.975Z,17.25
2018-02-07T06:16:58.415Z,17.25
2018-02-07T06:17:58.854Z,17.25
2018-02-07T06:18:59.302Z,17.25
2018-02-07T06:19:58.722Z,17.25
2018-02-07T06:20:59.246Z,17.25
2018-02-07T06:21:58.662Z,17.25
2018-02-07T06:22:59.107Z,17.25
2018-02-07T06:23:58.716Z,17.25
2018-02-07T06:24:59.144Z,17.25
2018-02-07T06:25:58.569Z,17.25
2018-02-07T06:26:59.005Z,17.25
2018-02-07T06:27:58.457Z,17.25
2018-02-07T06:28:59.057Z,17.25
2018-02-07T06:29:58.468Z,17.25
2018-02-07T06:30:58.909Z,17.25
2018-02-07T06:31:58.349Z,17.25
2018-02-07T06:32:58.778Z,17.25
2018-02-07T06:33:59.257Z,17.25
2018-02-07T06:34:58.694Z,17.25
2018-02-07T06:35:59.132Z,17.5
2018-02-07T06:36:58.547Z,17.25
2018-02-07T06:37:58.965Z,17.5
2018-02-07T06:38:58.445Z,17.5
2018-02-07T06:39:58.873Z,17.5
2018-02-07T06:40:58.309Z,17.5
2018-02-07T06:41:58.751Z,17.5
2018-02-07T06:42:59.174Z,17.5
2018-02-07T06:43:58.610Z,17.5
2018-02-07T06:44:59.044Z,17.5
2018-02-07T06:45:58.476Z,17.5
2018-02-07T06:46:58.916Z,17.5
2018-02-07T06:47:58.350Z,17.5
2018-02-07T06:48:58.789Z,17.5
2018-02-07T06:49:59.260Z,17.5
2018-02-07T06:50:58.684Z,17.5
2018-02-07T06:51:59.365Z,17.5
2018-02-07T06:52:58.803Z,17.5
2018-02-07T06:53:59.220Z,17.5
2018-02-07T06:54:58.669Z,17.5
2018-02-07T06:55:59.083Z,17.5
2018-02-07T06:56:58.551Z,17.5
2018-02-07T06:57:58.980Z,17.5
2018-02-07T06:58:58.422Z,17.5
2018-02-07T06:59:58.951Z,17.5
2018-02-07T07:00:58.388Z,17.5
2018-02-07T07:01:58.889Z,17.5
2018-02-07T07:02:58.320Z,17.75
2018-02-07T07:03:58.832Z,17.75
2018-02-07T07:04:58.347Z,17.75
2018-02-07T07:05:58.777Z,17.5
2018-02-07T07:06:59.470Z,17.75
2018-02-07T07:07:58.886Z,17.75
2018-02-07T07:08:58.315Z,17.75
2018-02-07T07:09:58.738Z,17.75
2018-02-07T07:10:59.189Z,17.75
2018-02-07T07:11:58.647Z,17.75
2018-02-07T07:12:59.073Z,17.75
2018-02-07T07:13:58.504Z,17.75
2018-02-07T07:14:58.964Z,17.75
2018-02-07T07:15:58.496Z,17.75
2018-02-07T07:16:58.944Z,17.75
2018-02-07T07:17:58.374Z,17.75
2018-02-07T07:19:59.098Z,17.75
2018-02-07T07:20:58.522Z,17.75
2018-02-07T07:21:58.956Z,17.75
2018-02-07T07:22:58.402Z,17.75
2018-02-07T07:23:58.848Z,17.75
2018-02-07T07:24:58.525Z,17.75
2018-02-07T07:25:58.946Z,17.75
2018-02-07T07:26:58.375Z,17.75
2018-02-07T07:27:58.805Z,17.75
2018-02-07T07:28:59.255Z,17.75
2018-02-07T07:29:58.702Z,17.75
2018-02-07T07:30:59.135Z,17.75
2018-02-07T07:31:58.563Z,17.75
2018-02-07T07:32:59.018Z,17.75
2018-02-07T07:33:58.459Z,17.75
2018-02-07T07:34:58.923Z,17.75
2018-02-07T07:36:58.513Z,17.75
2018-02-07T07:37:58.977Z,17.75
2018-02-07T07:38:58.410Z,17.75
2018-02-07T07:39:58.846Z,17.75
2018-02-07T07:40:58.267Z,17.75
2018-02-07T07:41:58.699Z,17.75
2018-02-07T07:42:59.114Z,17.75
2018-02-07T07:43:58.565Z,17.75
2018-02-07T07:44:58.998Z,17.75
2018-02-07T07:45:58.411Z,17.75
2018-02-07T07:46:58.847Z,17.75
2018-02-07T07:47:58.291Z,17.75
2018-02-07T07:48:58.723Z,17.5
2018-02-07T07:49:59.272Z,17.75
2018-02-07T07:50:58.700Z,17.5
2018-02-07T07:51:59.128Z,17.5
2018-02-07T07:52:58.554Z,17.5
2018-02-07T07:54:59.315Z,17.5
2018-02-07T07:55:58.776Z,17.5
2018-02-07T07:56:59.189Z,17.5
2018-02-07T07:57:58.624Z,17.5
2018-02-07T07:58:59.060Z,17.5
2018-02-07T07:59:58.524Z,17.5
2018-02-07T08:00:59.083Z,17.5
2018-02-07T08:01:58.636Z,17.5
2018-02-07T08:02:59.053Z,17.5
2018-02-07T08:03:58.503Z,17.5
2018-02-07T08:04:58.962Z,17.5
2018-02-07T08:06:58.723Z,17.5
2018-02-07T08:07:59.170Z,17.5
2018-02-07T08:08:58.578Z,17.75
2018-02-07T08:09:59.044Z,17.5
2018-02-07T08:10:58.503Z,17.5
2018-02-07T08:11:58.981Z,17.5
2018-02-07T08:12:58.436Z,17.5
2018-02-07T08:13:58.878Z,17.5
2018-02-07T08:14:58.328Z,17.5
2018-02-07T08:15:58.784Z,17.5
2018-02-07T08:16:59.212Z,17.5
2018-02-07T08:17:58.679Z,17.5
2018-02-07T08:18:59.141Z,17.5
2018-02-07T08:19:58.595Z,17.5
2018-02-07T08:20:59.057Z,17.5
2018-02-07T08:21:58.472Z,17.5
2018-02-07T08:22:58.918Z,17.5
2018-02-07T08:23:58.372Z,17.5
2018-02-07T08:24:58.847Z,17.5
2018-02-07T08:25:58.512Z,17.5
2018-02-07T08:26:58.955Z,17.5
2018-02-07T08:27:58.655Z,17.5
2018-02-07T08:28:59.081Z,17.5
2018-02-07T08:29:58.489Z,17.5
2018-02-07T08:30:58.954Z,17.5
2018-02-07T08:31:58.423Z,17.5
2018-02-07T08:32:58.946Z,17.5
2018-02-07T08:33:58.392Z,17.5
2018-02-07T08:34:58.820Z,17.5
2018-02-07T08:35:58.291Z,17.5
2018-02-07T08:36:58.728Z,17.5
2018-02-07T08:37:59.295Z,17.5
2018-02-07T08:38:58.716Z,17.5
2018-02-07T08:39:59.181Z,17.5
2018-02-07T08:40:58.626Z,17.5
2018-02-07T08:41:59.067Z,17.5
2018-02-07T08:42:58.517Z,17.5
2018-02-07T08:43:58.962Z,17.5
2018-02-07T08:44:58.408Z,17.25
2018-02-07T08:45:58.864Z,17.5
2018-02-07T08:46:58.271Z,17.5
2018-02-07T08:47:58.738Z,17.5
2018-02-07T08:48:59.285Z,17.25
2018-02-07T08:49:58.728Z,17.25
2018-02-07T08:50:59.216Z,17.25
2018-02-07T08:51:58.670Z,17.25
2018-02-07T08:52:59.123Z,17.25
2018-02-07T08:53:58.597Z,17.25
2018-02-07T08:54:59.027Z,17.25
2018-02-07T08:55:58.524Z,17.25
2018-02-07T08:56:59.058Z,17.25
2018-02-07T08:57:58.512Z,17.25
2018-02-07T08:58:58.965Z,17.25
2018-02-07T08:59:58.405Z,17.25
2018-02-07T09:00:58.901Z,17.25
2018-02-07T09:01:58.337Z,17.25
2018-02-07T09:02:58.786Z,17.25
2018-02-07T09:03:59.208Z,17.25
2018-02-07T09:04:58.758Z,17.25
2018-02-07T09:05:59.223Z,17.25
2018-02-07T09:06:58.660Z,17.25
2018-02-07T09:07:59.107Z,17.5
2018-02-07T09:08:58.571Z,17.25
2018-02-07T09:09:59.083Z,17.25
2018-02-07T09:10:58.753Z,17.25
2018-02-07T09:11:59.164Z,17.25
2018-02-07T09:12:58.615Z,17.5
2018-02-07T09:13:59.070Z,17.25
2018-02-07T09:14:58.514Z,17.25
2018-02-07T09:15:58.994Z,17.25
2018-02-07T09:16:58.450Z,17.25
2018-02-07T09:17:58.878Z,17.5
2018-02-07T09:18:58.292Z,17.5
2018-02-07T09:19:58.746Z,17.5
2018-02-07T09:20:59.184Z,17.5
2018-02-07T09:21:58.652Z,17.5
2018-02-07T09:22:59.115Z,17.5
2018-02-07T09:23:58.562Z,17.5
2018-02-07T09:24:59.002Z,17.5
2018-02-07T09:25:58.462Z,17.5
2018-02-07T09:26:59.178Z,17.5
2018-02-07T09:27:58.651Z,17.5
2018-02-07T09:28:59.109Z,17.5
2018-02-07T09:29:58.533Z,17.5
2018-02-07T09:30:58.984Z,17.5
2018-02-07T09:31:58.447Z,17.5
2018-02-07T09:32:58.947Z,17.5
2018-02-07T09:33:58.364Z,17.5
2018-02-07T09:34:58.835Z,17.5
2018-02-07T09:35:58.304Z,17.5
2018-02-07T09:36:58.745Z,17.5
2018-02-07T09:37:59.227Z,17.5
2018-02-07T09:38:58.661Z,17.5
2018-02-07T09:39:59.114Z,17.5
2018-02-07T09:40:58.586Z,17.5
2018-02-07T09:41:59.042Z,17.5
2018-02-07T09:42:58.519Z,17.5
2018-02-07T09:43:58.941Z,17.5
2018-02-07T09:44:58.363Z,17.5
2018-02-07T09:45:58.783Z,17.5
2018-02-07T09:46:59.207Z,17.5
2018-02-07T09:47:58.657Z,17.5
2018-02-07T09:48:59.102Z,17.5
2018-02-07T09:49:58.567Z,17.5
2018-02-07T09:50:59.051Z,17.5
2018-02-07T09:51:58.483Z,17.5
2018-02-07T09:52:58.931Z,17.5
2018-02-07T09:53:58.420Z,17.5
2018-02-07T09:54:58.854Z,17.5
2018-02-07T09:55:58.349Z,17.5
2018-02-07T09:56:58.768Z,17.5
2018-02-07T09:57:59.222Z,17.5
2018-02-07T09:58:58.660Z,17.5
2018-02-07T09:59:59.119Z,17.5
2018-02-07T10:00:58.610Z,17.5
2018-02-07T10:01:59.094Z,17.5
2018-02-07T10:02:58.559Z,17.5
2018-02-07T10:03:59.004Z,17.75
2018-02-07T10:04:58.450Z,17.5
2018-02-07T10:05:58.879Z,17.75
2018-02-07T10:06:58.445Z,17.75
2018-02-07T10:07:58.894Z,17.75
2018-02-07T10:08:58.362Z,17.75
2018-02-07T10:09:58.830Z,17.75
2018-02-07T10:10:58.271Z,17.75
2018-02-07T10:11:58.728Z,17.75
2018-02-07T10:12:59.166Z,17.75
2018-02-07T10:13:58.754Z,17.75
2018-02-07T10:14:58.322Z,17.75
2018-02-07T10:15:58.781Z,17.75
2018-02-07T10:16:58.213Z,17.75
2018-02-07T10:17:58.674Z,17.75
2018-02-07T10:18:59.147Z,17.75
2018-02-07T10:19:58.598Z,17.75
2018-02-07T10:20:59.001Z,17.75
2018-02-07T10:21:58.442Z,17.75
2018-02-07T10:22:58.985Z,17.75
2018-02-07T10:23:58.422Z,17.75
2018-02-07T10:24:58.862Z,17.75
2018-02-07T10:25:58.351Z,17.75
2018-02-07T10:26:58.999Z,17.75
2018-02-07T10:27:58.448Z,17.75
2018-02-07T10:28:58.840Z,17.75
2018-02-07T10:29:58.276Z,17.75
2018-02-07T10:30:58.853Z,17.75
2018-02-07T10:31:58.272Z,17.75
2018-02-07T10:32:58.686Z,17.75
2018-02-07T10:33:59.151Z,17.75
2018-02-07T10:34:58.623Z,17.75
2018-02-07T10:35:59.087Z,17.75
2018-02-07T10:36:58.584Z,17.75
2018-02-07T10:37:59.038Z,17.75
2018-02-07T10:38:58.478Z,17.75
2018-02-07T10:39:58.930Z,17.75
2018-02-07T10:40:58.374Z,17.75
2018-02-07T10:41:58.854Z,17.75
2018-02-07T10:42:58.309Z,17.75
2018-02-07T10:43:58.764Z,17.75
2018-02-07T10:44:59.209Z,17.75
2018-02-07T10:45:58.686Z,17.75
2018-02-07T10:46:59.129Z,17.75
2018-02-07T10:47:58.589Z,17.75
2018-02-07T10:48:59.008Z,17.75
2018-02-07T10:49:58.459Z,17.75
2018-02-07T10:50:58.898Z,17.75
2018-02-07T10:51:58.353Z,17.75
2018-02-07T10:52:58.864Z,17.75
2018-02-07T10:53:58.321Z,17.75
2018-02-07T10:54:58.782Z,17.75
2018-02-07T10:55:58.217Z,17.75
2018-02-07T10:56:58.708Z,17.75
2018-02-07T10:57:59.183Z,17.75
2018-02-07T10:58:58.609Z,17.75
2018-02-07T10:59:59.043Z,17.75
2018-02-07T11:00:58.500Z,17.75
2018-02-07T11:01:58.981Z,17.75
2018-02-07T11:02:58.436Z,18
2018-02-07T11:03:58.844Z,17.75
2018-02-07T11:04:58.305Z,17.75
2018-02-07T11:05:58.755Z,18
2018-02-07T11:06:59.181Z,18
2018-02-07T11:07:58.617Z,18
2018-02-07T11:08:59.089Z,18
2018-02-07T11:09:58.669Z,18
2018-02-07T11:10:59.103Z,18
2018-02-07T11:11:58.500Z,18
2018-02-07T11:12:58.962Z,18
2018-02-07T11:13:58.442Z,18
2018-02-07T11:14:58.889Z,18
2018-02-07T11:15:58.346Z,18
2018-02-07T11:16:58.770Z,18
2018-02-07T11:17:58.299Z,18
2018-02-07T11:18:58.841Z,18
2018-02-07T11:19:58.280Z,18
2018-02-07T11:20:58.750Z,18
2018-02-07T11:21:59.177Z,18
2018-02-07T11:22:58.613Z,18
2018-02-07T11:23:59.098Z,18
2018-02-07T11:24:58.577Z,18
2018-02-07T11:25:59.017Z,18
2018-02-07T11:26:58.436Z,18
2018-02-07T11:27:59.138Z,18
2018-02-07T11:28:58.610Z,18
2018-02-07T11:29:59.031Z,18
2018-02-07T11:30:58.459Z,18
2018-02-07T11:31:58.937Z,18
2018-02-07T11:32:58.356Z,18
2018-02-07T11:33:58.815Z,18
2018-02-07T11:34:58.252Z,18
2018-02-07T11:35:58.712Z,18
2018-02-07T11:36:59.128Z,18
2018-02-07T11:37:58.571Z,18
2018-02-07T11:38:59.311Z,18
2018-02-07T11:39:58.794Z,18
2018-02-07T11:40:58.257Z,18
2018-02-07T11:41:58.706Z,18
2018-02-07T11:42:59.125Z,18
2018-02-07T11:43:58.605Z,18
2018-02-07T11:44:59.052Z,18
2018-02-07T11:45:58.511Z,18
2018-02-07T11:46:58.959Z,18
2018-02-07T11:47:58.432Z,18
2018-02-07T11:48:58.901Z,18
2018-02-07T11:49:58.330Z,18
2018-02-07T11:50:58.810Z,18
2018-02-07T11:51:58.183Z,18
2018-02-07T11:52:58.625Z,18
2018-02-07T11:53:59.075Z,18
2018-02-07T11:54:58.583Z,18
2018-02-07T11:55:59.043Z,18
2018-02-07T11:56:58.491Z,18
2018-02-07T11:57:58.951Z,18
2018-02-07T11:58:58.422Z,18
2018-02-07T11:59:58.851Z,18
2018-02-07T12:00:58.308Z,18
2018-02-07T12:01:58.747Z,18
2018-02-07T12:02:58.190Z,18
2018-02-07T12:03:58.660Z,18
2018-02-07T12:04:59.111Z,18
2018-02-07T12:05:58.563Z,18
2018-02-07T12:06:59.026Z,18
2018-02-07T12:07:58.499Z,18
2018-02-07T12:08:58.910Z,18
2018-02-07T12:09:58.374Z,18
2018-02-07T12:10:58.846Z,18
2018-02-07T12:11:58.284Z,18
2018-02-07T12:12:58.714Z,18
2018-02-07T12:13:59.135Z,18
2018-02-07T12:14:58.566Z,18
2018-02-07T12:15:59.061Z,18
2018-02-07T12:17:58.791Z,18
2018-02-07T12:18:58.184Z,18
2018-02-07T12:19:58.648Z,18
2018-02-07T12:20:59.064Z,18
2018-02-07T12:21:58.529Z,18
2018-02-07T12:22:58.986Z,18
2018-02-07T12:23:58.420Z,18
2018-02-07T12:24:58.883Z,18
2018-02-07T12:25:58.597Z,18
2018-02-07T12:26:59.047Z,18
2018-02-07T12:27:58.471Z,18
2018-02-07T12:28:59.107Z,18
2018-02-07T12:29:58.554Z,18
2018-02-07T12:30:59.027Z,18
2018-02-07T12:31:58.527Z,18
2018-02-07T12:32:58.987Z,18
2018-02-07T12:33:58.434Z,18
2018-02-07T12:34:58.879Z,18
2018-02-07T12:35:58.325Z,18
2018-02-07T12:36:58.814Z,18
2018-02-07T12:37:58.407Z,18
2018-02-07T12:38:58.849Z,18
2018-02-07T12:39:58.314Z,18
2018-02-07T12:40:58.759Z,18
2018-02-07T12:41:58.191Z,18
2018-02-07T12:42:58.639Z,18
2018-02-07T12:43:59.105Z,18
2018-02-07T12:44:58.552Z,18
2018-02-07T12:45:58.997Z,18
2018-02-07T12:46:58.407Z,18
2018-02-07T12:47:58.828Z,18
2018-02-07T12:48:58.280Z,18
2018-02-07T12:49:58.701Z,18
2018-02-07T12:50:59.165Z,18
2018-02-07T12:51:58.623Z,18
2018-02-07T12:52:59.322Z,18
2018-02-07T12:53:58.725Z,18
2018-02-07T12:54:58.159Z,18
2018-02-07T12:55:58.633Z,18
2018-02-07T12:56:59.052Z,18
2018-02-07T12:57:58.505Z,18
2018-02-07T12:58:59.034Z,18
2018-02-07T12:59:58.504Z,18
2018-02-07T13:00:58.947Z,18
2018-02-07T13:01:58.365Z,18
2018-02-07T13:02:58.916Z,18
2018-02-07T13:03:58.341Z,18
2018-02-07T13:04:58.770Z,18
2018-02-07T13:05:58.258Z,18
2018-02-07T13:06:58.765Z,18
2018-02-07T13:07:58.364Z,18
2018-02-07T13:08:58.785Z,18
2018-02-07T13:09:58.202Z,18
2018-02-07T13:10:58.667Z,18
2018-02-07T13:11:59.121Z,18
2018-02-07T13:12:58.601Z,18
2018-02-07T13:13:59.033Z,18
2018-02-07T13:14:58.569Z,18
2018-02-07T13:15:58.998Z,18
2018-02-07T13:16:58.461Z,18
2018-02-07T13:17:58.920Z,18
2018-02-07T13:18:58.373Z,18
2018-02-07T13:19:58.797Z,18
2018-02-07T13:20:58.212Z,18
2018-02-07T13:21:58.662Z,18
2018-02-07T13:22:59.117Z,18
2018-02-07T13:23:58.733Z,18
2018-02-07T13:24:58.176Z,18
2018-02-07T13:25:58.632Z,18
2018-02-07T13:26:59.096Z,18
2018-02-07T13:27:58.545Z,18
2018-02-07T13:28:58.258Z,18
2018-02-07T13:29:58.756Z,18
2018-02-07T13:30:58.240Z,18
2018-02-07T13:31:58.684Z,18
2018-02-07T13:32:59.151Z,18
2018-02-07T13:33:58.611Z,18